EWG92N EDDH-EGLL
Flight info
| Callsign | EWG92N |
|---|---|
| Flight time | N/A |
| Altitude | 36000 |
| Route | WSN5G/33 WSN N125 ITMIZ DCT PARYD DCT ABNED L980 LOGAN |
| Aircraft | B738/M-SDE2E3FGHIRWXY/LB1 |
Departure
| Time | 2026-04-22 17:57 |
|---|---|
| Airport | Hamburg Helmut Schmidt Airport (EDDH) |
Arrival
| Time | N/A |
|---|---|
| Airport | London Heathrow Airport (EGLL) |
| Time | Latitude | Longitude | Altitude | Speed | Heading |
|---|---|---|---|---|---|
| 2026-04-22 17:31 | 53.62740 | 10.00305 | 42 ft | 0 kts | 64° |
| 2026-04-22 17:47 | 53.62734 | 10.00287 | 42 ft | 2 kts | 57° |
| 2026-04-22 17:47 | 53.62726 | 10.00265 | 42 ft | 2 kts | 61° |
| 2026-04-22 17:47 | 53.62719 | 10.00243 | 42 ft | 2 kts | 59° |
| 2026-04-22 17:48 | 53.62713 | 10.00224 | 41 ft | 2 kts | 79° |
| 2026-04-22 17:48 | 53.62714 | 10.00199 | 41 ft | 2 kts | 110° |
| 2026-04-22 17:48 | 53.62722 | 10.00178 | 40 ft | 2 kts | 141° |
| 2026-04-22 17:48 | 53.62734 | 10.00166 | 40 ft | 0 kts | 159° |
| 2026-04-22 17:49 | 53.62736 | 10.00165 | 40 ft | 0 kts | 158° |
| 2026-04-22 17:54 | 53.62703 | 10.00190 | 41 ft | 15 kts | 152° |
| 2026-04-22 17:54 | 53.62619 | 10.00257 | 43 ft | 10 kts | 169° |
| 2026-04-22 17:54 | 53.62595 | 10.00252 | 43 ft | 2 kts | 202° |
| 2026-04-22 17:55 | 53.62582 | 10.00234 | 43 ft | 1 kts | 230° |
| 2026-04-22 17:55 | 53.62574 | 10.00216 | 43 ft | 3 kts | 235° |
| 2026-04-22 17:55 | 53.62571 | 10.00207 | 43 ft | 0 kts | 239° |
| 2026-04-22 17:56 | 53.62569 | 10.00204 | 43 ft | 3 kts | 239° |
| 2026-04-22 17:56 | 53.62573 | 10.00004 | 43 ft | 25 kts | 317° |
| 2026-04-22 17:56 | 53.62717 | 9.99863 | 36 ft | 27 kts | 332° |
| 2026-04-22 17:56 | 53.63080 | 9.99548 | 30 ft | 97 kts | 332° |
| 2026-04-22 17:57 | 53.63897 | 9.98841 | 51 ft | 162 kts | 329° |
| 2026-04-22 17:57 | 53.64919 | 9.98009 | 895 ft | 160 kts | 332° |
| 2026-04-22 17:57 | 53.65825 | 9.96980 | 1615 ft | 171 kts | 318° |
| 2026-04-22 17:57 | 53.66675 | 9.95570 | 2246 ft | 177 kts | 316° |
| 2026-04-22 17:58 | 53.67572 | 9.94035 | 2741 ft | 192 kts | 316° |
| 2026-04-22 17:58 | 53.68556 | 9.92350 | 3249 ft | 209 kts | 316° |
| 2026-04-22 17:58 | 53.69579 | 9.90590 | 4053 ft | 211 kts | 316° |
| 2026-04-22 17:58 | 53.70603 | 9.88816 | 4678 ft | 222 kts | 316° |
| 2026-04-22 17:59 | 53.71732 | 9.86859 | 5239 ft | 238 kts | 316° |
| 2026-04-22 17:59 | 53.72903 | 9.84828 | 5809 ft | 252 kts | 316° |
| 2026-04-22 17:59 | 53.74137 | 9.82682 | 6527 ft | 260 kts | 316° |
| 2026-04-22 17:59 | 53.75417 | 9.80442 | 7331 ft | 266 kts | 316° |
| 2026-04-22 18:00 | 53.76672 | 9.78163 | 8133 ft | 271 kts | 312° |
| 2026-04-22 18:00 | 53.77560 | 9.75354 | 8885 ft | 283 kts | 287° |
| 2026-04-22 18:00 | 53.77580 | 9.71981 | 9536 ft | 298 kts | 259° |
| 2026-04-22 18:00 | 53.76867 | 9.68733 | 10475 ft | 299 kts | 248° |
| 2026-04-22 18:01 | 53.75933 | 9.65464 | 10901 ft | 315 kts | 246° |
| 2026-04-22 18:01 | 53.74950 | 9.62050 | 11369 ft | 330 kts | 247° |
| 2026-04-22 18:01 | 53.73977 | 9.58499 | 11831 ft | 343 kts | 248° |
| 2026-04-22 18:01 | 53.72995 | 9.54767 | 12464 ft | 349 kts | 249° |
| 2026-04-22 18:02 | 53.72028 | 9.51016 | 13189 ft | 354 kts | 249° |
| 2026-04-22 18:02 | 53.71048 | 9.47191 | 13953 ft | 359 kts | 249° |
| 2026-04-22 18:02 | 53.70058 | 9.43328 | 14755 ft | 362 kts | 249° |
| 2026-04-22 18:02 | 53.69047 | 9.39394 | 15457 ft | 368 kts | 249° |
| 2026-04-22 18:03 | 53.68030 | 9.35451 | 16227 ft | 370 kts | 249° |
| 2026-04-22 18:03 | 53.66993 | 9.31437 | 16931 ft | 375 kts | 248° |
| 2026-04-22 18:03 | 53.65943 | 9.27389 | 17637 ft | 378 kts | 248° |